createdAt,value
2023-04-17T00:01:42.330Z,99.90
2023-04-17T00:04:11.260Z,99.90
2023-04-17T00:06:39.513Z,99.90
2023-04-17T00:09:06.538Z,99.90
2023-04-17T00:11:33.469Z,99.90
2023-04-17T00:14:00.456Z,99.90
2023-04-17T00:16:28.068Z,99.90
2023-04-17T00:18:55.914Z,99.90
2023-04-17T00:21:23.014Z,99.90
2023-04-17T00:23:49.878Z,99.90
2023-04-17T00:26:17.042Z,99.90
2023-04-17T00:28:43.879Z,99.90
2023-04-17T00:31:10.948Z,99.90
2023-04-17T00:33:37.862Z,99.90
2023-04-17T00:36:05.505Z,99.90
2023-04-17T00:38:32.428Z,99.90
2023-04-17T00:40:59.381Z,99.90
2023-04-17T00:43:26.329Z,99.90
2023-04-17T00:45:54.310Z,99.90
2023-04-17T00:48:24.129Z,99.90
2023-04-17T00:50:52.749Z,99.90
2023-04-17T00:53:19.937Z,99.90
2023-04-17T00:55:51.272Z,99.90
2023-04-17T00:58:18.791Z,99.90
2023-04-17T01:00:45.836Z,99.90
2023-04-17T01:03:13.178Z,99.90
2023-04-17T01:05:41.320Z,99.90
2023-04-17T01:08:08.256Z,99.90
2023-04-17T01:10:36.348Z,99.90
2023-04-17T01:13:05.132Z,99.90
2023-04-17T01:15:32.281Z,99.90
2023-04-17T01:17:59.928Z,99.90
2023-04-17T01:20:30.015Z,99.90
2023-04-17T01:22:58.516Z,99.90
2023-04-17T01:25:27.020Z,99.90
2023-04-17T01:27:54.319Z,99.90
2023-04-17T01:30:21.389Z,99.90
2023-04-17T01:32:48.380Z,99.90
2023-04-17T01:35:15.373Z,99.90
2023-04-17T01:37:42.338Z,99.90
2023-04-17T01:40:10.013Z,99.90
2023-04-17T01:42:36.993Z,99.90
2023-04-17T01:45:05.157Z,99.90
2023-04-17T01:47:32.145Z,99.90
2023-04-17T01:49:59.033Z,99.90
2023-04-17T01:52:25.930Z,99.90
2023-04-17T01:54:52.848Z,99.90
2023-04-17T01:57:19.789Z,99.90
2023-04-17T01:59:46.713Z,99.90
2023-04-17T02:02:13.850Z,99.90
2023-04-17T02:04:40.982Z,99.90
2023-04-17T02:07:08.014Z,99.90
2023-04-17T02:09:34.967Z,99.90
2023-04-17T02:12:02.391Z,99.90
2023-04-17T02:14:31.159Z,99.90
2023-04-17T02:16:58.241Z,99.90
2023-04-17T02:19:25.582Z,99.90
2023-04-17T02:21:52.617Z,99.90
2023-04-17T02:24:19.792Z,99.90
2023-04-17T02:26:46.804Z,99.90
2023-04-17T02:29:13.913Z,99.90
2023-04-17T02:31:44.140Z,99.90
2023-04-17T02:34:11.144Z,99.90
2023-04-17T02:36:38.084Z,99.90
2023-04-17T02:39:06.190Z,99.90
2023-04-17T02:41:33.188Z,99.90
2023-04-17T02:44:01.878Z,99.90
2023-04-17T02:46:29.192Z,99.90
2023-04-17T02:48:56.164Z,99.90
2023-04-17T02:51:23.085Z,99.90
2023-04-17T02:53:50.034Z,99.90
2023-04-17T02:56:17.524Z,99.90
2023-04-17T02:58:45.522Z,99.90
2023-04-17T03:01:12.556Z,99.90
2023-04-17T03:03:42.115Z,99.90
2023-04-17T03:06:09.956Z,99.90
2023-04-17T03:08:38.894Z,99.90
2023-04-17T03:11:06.583Z,99.90
2023-04-17T03:13:36.622Z,99.90
2023-04-17T03:16:04.759Z,99.90
2023-04-17T03:18:32.363Z,99.90
2023-04-17T03:20:59.333Z,99.90
2023-04-17T03:23:26.290Z,99.90
2023-04-17T03:25:53.369Z,99.90
2023-04-17T03:28:21.952Z,99.90
2023-04-17T03:30:49.744Z,99.90
2023-04-17T03:33:17.233Z,99.90
2023-04-17T03:35:46.299Z,99.90
2023-04-17T03:38:13.208Z,99.90
2023-04-17T03:40:40.674Z,99.90
2023-04-17T03:43:07.612Z,99.90
2023-04-17T03:45:34.622Z,99.90
2023-04-17T03:48:01.720Z,99.90
2023-04-17T03:50:28.655Z,99.90
2023-04-17T03:52:55.889Z,99.90
2023-04-17T03:55:22.769Z,99.90
2023-04-17T03:57:51.628Z,99.90
2023-04-17T04:00:19.160Z,99.90
2023-04-17T04:02:46.841Z,99.90
2023-04-17T04:05:14.383Z,99.90
2023-04-17T04:07:41.910Z,99.90
2023-04-17T04:10:09.390Z,99.90
2023-04-17T04:12:36.262Z,99.90
2023-04-17T04:15:03.654Z,99.90
2023-04-17T04:17:30.582Z,99.90
2023-04-17T04:19:57.515Z,99.90
2023-04-17T04:22:24.432Z,99.90
2023-04-17T04:24:53.708Z,99.90
2023-04-17T04:27:22.774Z,99.90
2023-04-17T04:29:50.185Z,99.90
2023-04-17T04:32:17.180Z,99.90
2023-04-17T04:34:44.647Z,99.90
2023-04-17T04:37:15.633Z,99.90
2023-04-17T04:39:43.304Z,99.90
2023-04-17T04:42:10.503Z,99.90
2023-04-17T04:44:37.721Z,99.90
2023-04-17T04:47:04.860Z,99.90
2023-04-17T04:49:31.886Z,99.90
2023-04-17T04:51:58.869Z,99.90
2023-04-17T04:54:25.730Z,99.90
2023-04-17T04:56:52.661Z,99.90
2023-04-17T04:59:19.643Z,99.90
2023-04-17T05:01:46.678Z,99.90
2023-04-17T05:04:13.598Z,99.90
2023-04-17T05:06:41.137Z,99.90
2023-04-17T05:09:08.065Z,99.90
2023-04-17T05:11:34.999Z,99.90
2023-04-17T05:14:03.966Z,99.90
2023-04-17T05:16:31.146Z,99.90
2023-04-17T05:18:58.028Z,99.90
2023-04-17T05:21:25.314Z,99.90
2023-04-17T05:23:52.317Z,99.90
2023-04-17T05:26:22.348Z,99.90
2023-04-17T05:28:49.386Z,99.90
2023-04-17T05:31:17.036Z,99.90
2023-04-17T05:33:44.025Z,99.90
2023-04-17T05:36:11.184Z,99.90
2023-04-17T05:38:38.057Z,99.90
2023-04-17T05:41:07.526Z,99.90
2023-04-17T05:43:34.741Z,99.90
2023-04-17T05:46:02.542Z,99.90
2023-04-17T05:48:30.213Z,99.90
2023-04-17T05:50:57.312Z,99.90
2023-04-17T05:53:24.230Z,99.90
2023-04-17T05:55:51.143Z,99.90
2023-04-17T05:58:23.841Z,99.90
2023-04-17T06:00:52.486Z,99.90
2023-04-17T06:03:20.867Z,99.90
2023-04-17T06:05:48.352Z,99.90
2023-04-17T06:08:15.580Z,99.90
2023-04-17T06:10:45.638Z,99.90
2023-04-17T06:13:12.860Z,99.90
2023-04-17T06:15:39.901Z,99.90
2023-04-17T06:18:06.916Z,99.90
2023-04-17T06:20:34.020Z,99.90
2023-04-17T06:23:01.287Z,99.90
2023-04-17T06:25:28.253Z,99.90
2023-04-17T06:27:55.218Z,99.90
2023-04-17T06:30:22.174Z,99.90
2023-04-17T06:32:50.226Z,99.90
2023-04-17T06:35:17.304Z,99.90
2023-04-17T06:37:44.294Z,99.90
2023-04-17T06:40:14.475Z,99.90
2023-04-17T06:42:41.452Z,99.90
2023-04-17T06:45:09.063Z,99.90
2023-04-17T06:47:36.021Z,99.90
2023-04-17T06:50:03.025Z,99.90
2023-04-17T06:52:30.010Z,99.90
2023-04-17T06:54:58.696Z,99.90
2023-04-17T06:57:25.669Z,99.90
2023-04-17T06:59:52.673Z,99.90
2023-04-17T07:02:19.645Z,99.90
2023-04-17T07:04:46.830Z,99.90
2023-04-17T07:07:14.047Z,99.90
2023-04-17T07:09:42.934Z,99.90
2023-04-17T07:12:09.951Z,99.90
2023-04-17T07:14:36.909Z,99.90
2023-04-17T07:17:04.843Z,99.90
2023-04-17T07:19:34.009Z,99.90
2023-04-17T07:22:01.126Z,99.90
2023-04-17T07:24:28.085Z,99.90
2023-04-17T07:26:55.009Z,99.90
2023-04-17T07:29:21.956Z,99.90
2023-04-17T07:31:48.834Z,99.90
2023-04-17T07:34:15.909Z,99.90
2023-04-17T07:36:42.804Z,99.90
2023-04-17T07:39:09.878Z,99.90
2023-04-17T07:41:36.890Z,99.90
2023-04-17T07:44:05.364Z,99.50
2023-04-17T07:46:32.839Z,99.00
2023-04-17T07:48:59.782Z,98.40
2023-04-17T07:51:27.700Z,98.10
2023-04-17T07:53:54.603Z,99.10
2023-04-17T07:56:21.464Z,98.60
2023-04-17T07:58:51.905Z,98.70
2023-04-17T08:01:18.874Z,98.50
2023-04-17T08:03:46.186Z,97.40
2023-04-17T08:06:13.581Z,96.50
2023-04-17T08:08:40.697Z,96.60
2023-04-17T08:11:07.840Z,96.30
2023-04-17T08:13:34.880Z,96.30
2023-04-17T08:16:01.931Z,95.00
2023-04-17T08:18:29.102Z,95.10
2023-04-17T08:20:56.065Z,94.10
2023-04-17T08:23:22.962Z,94.00
2023-04-17T08:25:49.910Z,93.70
2023-04-17T08:28:17.024Z,93.40
2023-04-17T08:30:43.966Z,93.10
2023-04-17T08:33:13.245Z,93.00
2023-04-17T08:35:40.358Z,93.30
2023-04-17T08:38:08.309Z,93.10
2023-04-17T08:40:35.515Z,93.20
2023-04-17T08:43:03.319Z,93.00
2023-04-17T08:45:30.530Z,93.10
2023-04-17T08:47:57.518Z,93.10
2023-04-17T08:50:24.500Z,92.50
2023-04-17T08:52:52.776Z,91.00
2023-04-17T08:55:29.070Z,90.50
2023-04-17T08:58:06.097Z,90.30
2023-04-17T09:00:36.331Z,91.00
2023-04-17T09:03:08.048Z,91.10
2023-04-17T09:05:38.964Z,90.30
2023-04-17T09:08:20.984Z,88.20
2023-04-17T09:10:55.394Z,89.40
2023-04-17T09:13:25.352Z,90.10
2023-04-17T09:16:08.134Z,89.60
2023-04-17T09:18:36.778Z,89.40
2023-04-17T09:21:06.072Z,89.00
2023-04-17T09:23:55.270Z,90.10
2023-04-17T09:26:27.415Z,90.00
2023-04-17T09:29:11.770Z,85.20
2023-04-17T09:31:42.404Z,83.90
2023-04-17T09:34:13.582Z,85.40
2023-04-17T09:36:43.202Z,86.30
2023-04-17T09:39:26.279Z,86.50
2023-04-17T09:42:06.577Z,88.30
2023-04-17T09:44:36.847Z,82.80
2023-04-17T09:47:05.313Z,84.50
2023-04-17T09:49:42.728Z,81.40
2023-04-17T09:52:10.208Z,80.90
2023-04-17T09:54:39.852Z,80.20
2023-04-17T09:57:08.843Z,81.70
2023-04-17T09:59:41.958Z,80.50
2023-04-17T10:02:11.526Z,79.30
2023-04-17T10:04:43.385Z,79.70
2023-04-17T10:07:12.652Z,77.40
2023-04-17T10:09:45.683Z,75.00
2023-04-17T10:12:17.265Z,73.80
2023-04-17T10:14:48.405Z,69.40
2023-04-17T10:17:31.523Z,71.10
2023-04-17T10:20:23.454Z,70.50
2023-04-17T10:22:56.110Z,67.40
2023-04-17T10:25:28.053Z,67.90
2023-04-17T10:28:01.144Z,66.20
2023-04-17T10:31:51.474Z,65.90
2023-04-17T10:34:38.245Z,67.00
2023-04-17T10:37:05.397Z,65.80
2023-04-17T10:40:12.159Z,68.30
2023-04-17T10:42:40.439Z,63.40
2023-04-17T10:45:19.241Z,64.30
2023-04-17T10:47:58.647Z,63.90
2023-04-17T10:50:29.161Z,59.70
2023-04-17T10:52:56.570Z,58.20
2023-04-17T10:55:25.079Z,57.70
2023-04-17T10:58:04.859Z,60.20
2023-04-17T11:00:38.178Z,60.10
2023-04-17T11:03:06.973Z,59.30
2023-04-17T11:05:36.031Z,56.90
2023-04-17T11:08:03.144Z,57.80
2023-04-17T11:10:30.229Z,57.30
2023-04-17T11:12:57.165Z,51.60
2023-04-17T11:15:32.435Z,52.50
2023-04-17T11:18:00.790Z,54.30
2023-04-17T11:20:30.805Z,53.20
2023-04-17T11:23:03.050Z,52.40
2023-04-17T11:25:33.831Z,52.10
2023-04-17T11:28:07.521Z,52.50
2023-04-17T11:30:38.163Z,53.20
2023-04-17T11:33:07.957Z,51.80
2023-04-17T11:35:38.207Z,51.10
2023-04-17T11:38:24.141Z,51.00
2023-04-17T11:40:58.956Z,53.70
2023-04-17T11:43:29.024Z,53.80
2023-04-17T11:46:03.388Z,53.40
2023-04-17T11:48:32.351Z,52.70
2023-04-17T11:51:03.657Z,52.80
2023-04-17T11:53:32.211Z,52.80
2023-04-17T11:56:19.831Z,53.80
2023-04-17T11:58:53.443Z,54.10
2023-04-17T12:01:26.766Z,54.90
2023-04-17T12:03:56.244Z,56.10
2023-04-17T12:06:24.755Z,56.30
2023-04-17T12:08:55.818Z,56.70
2023-04-17T12:11:27.333Z,56.40
2023-04-17T12:13:55.638Z,56.50
2023-04-17T12:16:24.790Z,57.40
2023-04-17T12:18:52.735Z,57.30
2023-04-17T12:21:20.810Z,57.70
2023-04-17T12:23:48.149Z,58.40
2023-04-17T12:26:15.347Z,58.80
2023-04-17T12:28:42.569Z,62.50
2023-04-17T12:31:09.596Z,63.50
2023-04-17T12:33:36.636Z,60.00
2023-04-17T12:36:06.497Z,59.60
2023-04-17T12:38:33.803Z,58.00
2023-04-17T12:41:00.866Z,54.60
2023-04-17T12:43:27.790Z,54.30
2023-04-17T12:45:54.864Z,52.60
2023-04-17T12:48:21.913Z,53.80
2023-04-17T12:50:48.841Z,54.90
2023-04-17T12:53:16.298Z,55.20
2023-04-17T12:55:44.500Z,55.80
2023-04-17T12:58:13.046Z,57.20
2023-04-17T13:00:43.775Z,57.20
2023-04-17T13:03:11.831Z,58.20
2023-04-17T13:05:39.615Z,59.40
2023-04-17T13:08:09.640Z,60.30
2023-04-17T13:10:36.811Z,61.40
2023-04-17T13:13:04.708Z,62.00
2023-04-17T13:15:32.206Z,63.20
2023-04-17T13:17:59.210Z,64.40
2023-04-17T13:20:26.187Z,64.70
2023-04-17T13:22:53.066Z,65.60
2023-04-17T13:25:20.027Z,66.20
2023-04-17T13:27:47.132Z,67.70
2023-04-17T13:30:14.511Z,68.90
2023-04-17T13:32:42.626Z,70.20
2023-04-17T13:35:12.967Z,72.40
2023-04-17T13:37:41.399Z,74.30
2023-04-17T13:40:10.764Z,75.90
2023-04-17T13:42:38.273Z,77.70
2023-04-17T13:45:05.918Z,77.70
2023-04-17T13:47:33.072Z,78.50
2023-04-17T13:50:00.263Z,79.10
2023-04-17T13:52:27.344Z,79.20
2023-04-17T13:54:54.271Z,80.00
2023-04-17T13:57:21.314Z,78.80
2023-04-17T13:59:48.224Z,77.50
2023-04-17T14:02:15.492Z,78.50
2023-04-17T14:04:42.801Z,77.50
2023-04-17T14:07:12.632Z,77.50
2023-04-17T14:09:39.600Z,77.90
2023-04-17T14:12:06.670Z,77.20
2023-04-17T14:14:33.632Z,76.30
2023-04-17T14:17:00.841Z,75.60
2023-04-17T14:19:27.797Z,75.90
2023-04-17T14:21:54.765Z,75.20
2023-04-17T14:24:21.656Z,76.10
2023-04-17T14:26:48.580Z,77.20
2023-04-17T14:29:15.662Z,77.80
2023-04-17T14:31:42.747Z,77.50
2023-04-17T14:34:09.837Z,77.60
2023-04-17T14:36:36.916Z,77.10
2023-04-17T14:39:03.992Z,77.30
2023-04-17T14:41:33.984Z,77.10
2023-04-17T14:44:01.339Z,77.70
2023-04-17T14:46:28.331Z,77.70
2023-04-17T14:48:56.263Z,77.90
2023-04-17T14:51:27.240Z,77.60
2023-04-17T14:53:54.403Z,78.10
2023-04-17T14:56:24.369Z,77.60
2023-04-17T14:58:51.288Z,77.70
2023-04-17T15:01:18.303Z,77.60
2023-04-17T15:03:48.202Z,78.00
2023-04-17T15:06:16.679Z,78.70
2023-04-17T15:08:43.604Z,78.10
2023-04-17T15:11:10.616Z,78.30
2023-04-17T15:13:39.498Z,78.20
2023-04-17T15:16:07.069Z,79.10
2023-04-17T15:18:36.001Z,78.10
2023-04-17T15:21:02.975Z,77.90
2023-04-17T15:23:29.983Z,78.00
2023-04-17T15:25:57.880Z,78.30
2023-04-17T15:28:25.422Z,78.50
2023-04-17T15:30:53.026Z,77.60
2023-04-17T15:33:20.165Z,77.50
2023-04-17T15:35:47.267Z,78.10
2023-04-17T15:38:14.244Z,78.70
2023-04-17T15:40:41.150Z,79.20
2023-04-17T15:43:10.544Z,79.50
2023-04-17T15:45:37.732Z,79.90
2023-04-17T15:48:04.957Z,78.60
2023-04-17T15:50:32.024Z,77.50
2023-04-17T15:52:58.966Z,76.90
2023-04-17T15:55:26.014Z,76.40
2023-04-17T15:57:53.195Z,76.30
2023-04-17T16:00:20.948Z,76.50
2023-04-17T16:02:49.013Z,76.40
2023-04-17T16:05:17.366Z,77.20
2023-04-17T16:07:45.022Z,77.20
2023-04-17T16:10:15.678Z,77.60
2023-04-17T16:12:44.478Z,77.40
2023-04-17T16:15:17.117Z,77.00
2023-04-17T16:17:45.662Z,78.30
2023-04-17T16:20:13.170Z,78.80
2023-04-17T16:22:40.785Z,80.10
2023-04-17T16:25:08.384Z,79.80
2023-04-17T16:27:35.367Z,79.30
2023-04-17T16:30:05.161Z,79.10
2023-04-17T16:32:32.109Z,80.10
2023-04-17T16:34:59.186Z,79.40
2023-04-17T16:37:26.282Z,80.00
2023-04-17T16:39:53.420Z,81.30
2023-04-17T16:42:20.361Z,80.90
2023-04-17T16:44:47.463Z,80.50
2023-04-17T16:47:14.966Z,80.40
2023-04-17T16:49:42.742Z,81.40
2023-04-17T16:52:10.074Z,80.10
2023-04-17T16:54:37.206Z,80.40
2023-04-17T16:57:05.806Z,81.00
2023-04-17T16:59:33.364Z,81.00
2023-04-17T17:02:03.469Z,81.80
2023-04-17T17:04:30.949Z,84.20
2023-04-17T17:06:57.951Z,82.50
2023-04-17T17:09:26.265Z,82.50
2023-04-17T17:11:53.445Z,82.50
2023-04-17T17:14:20.590Z,83.10
2023-04-17T17:16:47.635Z,83.10
2023-04-17T17:19:15.304Z,83.70
2023-04-17T17:21:42.346Z,83.50
2023-04-17T17:24:09.398Z,84.00
2023-04-17T17:26:37.047Z,84.40
2023-04-17T17:29:04.722Z,85.50
2023-04-17T17:31:33.909Z,85.50
2023-04-17T17:34:11.803Z,85.00
2023-04-17T17:36:49.225Z,85.30
2023-04-17T17:39:16.609Z,86.10
2023-04-17T17:41:45.877Z,86.90
2023-04-17T17:44:14.778Z,86.40
2023-04-17T17:46:42.105Z,87.20
2023-04-17T17:49:09.869Z,86.60
2023-04-17T17:51:36.971Z,87.90
2023-04-17T17:54:03.923Z,87.30
2023-04-17T17:56:31.012Z,87.40
2023-04-17T17:58:57.902Z,89.50
2023-04-17T18:01:25.088Z,88.30
2023-04-17T18:03:53.204Z,88.40
2023-04-17T18:06:20.935Z,88.70
2023-04-17T18:08:48.436Z,89.10
2023-04-17T18:11:15.490Z,89.90
2023-04-17T18:13:42.455Z,89.80
2023-04-17T18:16:09.797Z,90.00
2023-04-17T18:18:36.862Z,90.10
2023-04-17T18:21:08.105Z,90.30
2023-04-17T18:23:35.487Z,90.40
2023-04-17T18:26:03.374Z,90.40
2023-04-17T18:28:30.707Z,90.90
2023-04-17T18:30:57.702Z,92.00
2023-04-17T18:33:24.889Z,90.80
2023-04-17T18:35:51.934Z,90.90
2023-04-17T18:38:18.879Z,91.00
2023-04-17T18:40:45.822Z,91.20
2023-04-17T18:43:12.758Z,91.80
2023-04-17T18:45:39.673Z,91.80
2023-04-17T18:48:06.723Z,92.20
2023-04-17T18:50:33.784Z,91.70
2023-04-17T18:53:00.709Z,92.40
2023-04-17T18:55:27.708Z,92.30
2023-04-17T18:57:54.624Z,92.20
2023-04-17T19:00:21.724Z,92.60
2023-04-17T19:02:48.775Z,92.70
2023-04-17T19:05:15.909Z,93.30
2023-04-17T19:07:42.954Z,93.10
2023-04-17T19:10:10.523Z,93.60
2023-04-17T19:12:37.517Z,93.40
2023-04-17T19:15:05.682Z,93.70
2023-04-17T19:17:32.663Z,93.80
2023-04-17T19:19:59.554Z,94.00
2023-04-17T19:22:26.442Z,94.60
2023-04-17T19:24:53.402Z,94.60
2023-04-17T19:27:20.718Z,94.90
2023-04-17T19:29:47.853Z,94.60
2023-04-17T19:32:17.939Z,95.00
2023-04-17T19:34:44.920Z,95.10
2023-04-17T19:37:11.924Z,95.40
2023-04-17T19:39:38.796Z,95.10
2023-04-17T19:42:05.999Z,95.80
2023-04-17T19:44:33.126Z,95.20
2023-04-17T19:47:00.069Z,95.60
2023-04-17T19:49:27.002Z,96.20
2023-04-17T19:51:54.013Z,96.30
2023-04-17T19:54:20.954Z,96.40
2023-04-17T19:56:47.981Z,96.40
2023-04-17T19:59:15.278Z,96.60
2023-04-17T20:01:43.764Z,96.70
2023-04-17T20:04:11.127Z,96.80
2023-04-17T20:06:39.520Z,96.80
2023-04-17T20:09:06.545Z,97.40
2023-04-17T20:11:34.013Z,98.00
2023-04-17T20:14:00.888Z,97.60
2023-04-17T20:16:28.009Z,97.70
2023-04-17T20:18:56.690Z,97.80
2023-04-17T20:21:24.175Z,98.00
2023-04-17T20:23:51.190Z,98.80
2023-04-17T20:26:18.438Z,98.30
2023-04-17T20:28:45.428Z,98.90
2023-04-17T20:31:12.383Z,98.90
2023-04-17T20:33:39.371Z,99.10
2023-04-17T20:36:06.601Z,99.10
2023-04-17T20:38:33.569Z,99.20
2023-04-17T20:41:00.848Z,99.40
2023-04-17T20:43:27.809Z,99.80
2023-04-17T20:45:54.753Z,99.60
2023-04-17T20:48:22.097Z,99.90
2023-04-17T20:50:49.051Z,99.80
2023-04-17T20:53:15.967Z,99.90
2023-04-17T20:55:43.263Z,99.90
2023-04-17T20:58:10.417Z,99.90
2023-04-17T21:00:42.025Z,99.90
2023-04-17T21:03:14.584Z,99.90
2023-04-17T21:05:41.598Z,99.90
2023-04-17T21:08:08.591Z,99.90
2023-04-17T21:10:35.448Z,99.90
2023-04-17T21:13:02.425Z,99.90
2023-04-17T21:15:29.950Z,99.90
2023-04-17T21:17:56.914Z,99.90
2023-04-17T21:20:23.896Z,99.90
2023-04-17T21:22:50.777Z,99.90
2023-04-17T21:25:17.866Z,99.90
2023-04-17T21:27:44.830Z,99.90
2023-04-17T21:30:11.976Z,99.90
2023-04-17T21:32:42.620Z,99.90
2023-04-17T21:35:10.149Z,99.90
2023-04-17T21:37:37.035Z,99.90
2023-04-17T21:40:04.584Z,99.90
2023-04-17T21:42:31.498Z,99.90
2023-04-17T21:44:58.355Z,99.90
2023-04-17T21:47:25.738Z,99.90
2023-04-17T21:49:52.594Z,99.90
2023-04-17T21:52:19.682Z,99.90
2023-04-17T21:54:46.565Z,99.90
2023-04-17T21:57:13.509Z,99.90
2023-04-17T21:59:40.513Z,99.90
2023-04-17T22:02:07.596Z,99.90
2023-04-17T22:04:34.591Z,99.90
2023-04-17T22:07:01.614Z,99.90
2023-04-17T22:09:29.102Z,99.90
2023-04-17T22:11:56.532Z,99.90
2023-04-17T22:14:23.519Z,99.90
2023-04-17T22:16:50.505Z,99.90
2023-04-17T22:19:17.408Z,99.90
2023-04-17T22:21:44.319Z,99.90
2023-04-17T22:24:11.639Z,99.90
2023-04-17T22:26:38.789Z,99.90
2023-04-17T22:29:05.696Z,99.90
2023-04-17T22:31:32.710Z,99.90
2023-04-17T22:33:59.788Z,99.90
2023-04-17T22:36:27.281Z,99.90
2023-04-17T22:38:54.338Z,99.90
2023-04-17T22:41:21.341Z,99.90
2023-04-17T22:43:49.553Z,99.90
2023-04-17T22:46:16.870Z,99.90
2023-04-17T22:48:47.075Z,99.90
2023-04-17T22:51:15.088Z,99.90
2023-04-17T22:53:42.811Z,99.90
2023-04-17T22:56:12.926Z,99.90
2023-04-17T22:58:39.964Z,99.90
2023-04-17T23:01:07.010Z,99.90
2023-04-17T23:03:35.064Z,99.90
2023-04-17T23:06:03.083Z,99.90
2023-04-17T23:08:31.008Z,99.90
2023-04-17T23:11:03.300Z,99.90
2023-04-17T23:13:32.150Z,99.90
2023-04-17T23:15:59.158Z,99.90
2023-04-17T23:18:26.157Z,99.90
2023-04-17T23:20:53.032Z,99.90
2023-04-17T23:23:20.116Z,99.90
2023-04-17T23:25:47.079Z,99.90
2023-04-17T23:28:14.396Z,99.90
2023-04-17T23:30:41.388Z,99.90
2023-04-17T23:33:08.569Z,99.90
2023-04-17T23:35:35.678Z,99.90
2023-04-17T23:38:02.663Z,99.90
2023-04-17T23:40:29.756Z,99.90
2023-04-17T23:42:56.684Z,99.90
2023-04-17T23:45:23.581Z,99.90
2023-04-17T23:47:51.317Z,99.90
2023-04-17T23:50:18.406Z,99.90
2023-04-17T23:52:45.327Z,99.90
2023-04-17T23:55:12.255Z,99.90
2023-04-17T23:57:39.217Z,99.90
